createdAt,value
2022-08-26T00:00:01.365Z,16.27
2022-08-26T00:00:24.290Z,16.30
2022-08-26T00:00:47.885Z,17.77
2022-08-26T00:01:10.657Z,16.98
2022-08-26T00:01:33.970Z,13.65
2022-08-26T00:01:57.779Z,14.20
2022-08-26T00:02:21.240Z,13.88
2022-08-26T00:02:44.789Z,15.10
2022-08-26T00:03:07.846Z,13.38
2022-08-26T00:03:32.149Z,15.93
2022-08-26T00:03:55.208Z,15.35
2022-08-26T00:04:18.244Z,14.63
2022-08-26T00:04:41.889Z,15.15
2022-08-26T00:05:06.025Z,14.13
2022-08-26T00:05:29.049Z,12.07
2022-08-26T00:05:52.069Z,14.27
2022-08-26T00:06:15.035Z,14.18
2022-08-26T00:06:46.130Z,15.50
2022-08-26T00:07:09.308Z,12.05
2022-08-26T00:07:32.161Z,13.88
2022-08-26T00:07:55.133Z,15.73
2022-08-26T00:08:18.449Z,17.05
2022-08-26T00:08:41.235Z,14.70
2022-08-26T00:09:04.909Z,15.48
2022-08-26T00:09:33.335Z,15.95
2022-08-26T00:10:01.984Z,15.35
2022-08-26T00:10:25.854Z,15.82
2022-08-26T00:10:49.083Z,14.30
2022-08-26T00:11:12.868Z,16.27
2022-08-26T00:11:35.684Z,16.60
2022-08-26T00:11:58.464Z,14.13
2022-08-26T00:12:21.850Z,13.98
2022-08-26T00:12:59.350Z,15.07
2022-08-26T00:13:22.218Z,15.60
2022-08-26T00:13:47.988Z,16.55
2022-08-26T00:14:14.077Z,16.67
2022-08-26T00:14:37.076Z,17.17
2022-08-26T00:15:00.790Z,13.95
2022-08-26T00:15:24.388Z,15.35
2022-08-26T00:15:47.288Z,14.43
2022-08-26T00:16:10.350Z,14.85
2022-08-26T00:16:35.179Z,13.75
2022-08-26T00:16:58.746Z,13.02
2022-08-26T00:17:21.688Z,13.90
2022-08-26T00:17:45.118Z,14.45
2022-08-26T00:18:16.821Z,14.10
2022-08-26T00:18:45.359Z,15.15
2022-08-26T00:19:08.215Z,16.33
2022-08-26T00:19:31.494Z,14.32
2022-08-26T00:19:54.393Z,14.55
2022-08-26T00:20:18.753Z,14.10
2022-08-26T00:20:41.833Z,15.25
2022-08-26T00:21:06.467Z,17.15
2022-08-26T00:21:29.683Z,14.15
2022-08-26T00:21:53.298Z,16.20
2022-08-26T00:22:21.459Z,14.95
2022-08-26T00:22:44.672Z,15.20
2022-08-26T00:23:08.330Z,14.05
2022-08-26T00:23:31.342Z,13.68
2022-08-26T00:23:55.038Z,14.27
2022-08-26T00:24:18.339Z,17.52
2022-08-26T00:24:48.082Z,16.15
2022-08-26T00:25:12.226Z,15.02
2022-08-26T00:25:35.496Z,15.65
2022-08-26T00:26:05.998Z,14.73
2022-08-26T00:26:33.838Z,16.02
2022-08-26T00:26:56.604Z,14.75
2022-08-26T00:27:22.101Z,14.43
2022-08-26T00:27:44.902Z,14.88
2022-08-26T00:28:07.866Z,15.57
2022-08-26T00:28:33.996Z,16.05
2022-08-26T00:28:57.251Z,16.15
2022-08-26T00:29:21.249Z,16.65
2022-08-26T00:29:44.522Z,15.90
2022-08-26T00:30:11.610Z,16.13
2022-08-26T00:30:34.612Z,15.07
2022-08-26T00:30:58.790Z,13.77
2022-08-26T00:31:21.667Z,14.68
2022-08-26T00:31:45.591Z,14.52
2022-08-26T00:32:08.897Z,14.45
2022-08-26T00:32:34.600Z,14.25
2022-08-26T00:32:57.720Z,16.73
2022-08-26T00:33:20.794Z,15.38
2022-08-26T00:33:43.772Z,13.15
2022-08-26T00:34:09.641Z,14.45
2022-08-26T00:34:34.462Z,13.75
2022-08-26T00:34:57.360Z,15.10
2022-08-26T00:35:20.332Z,12.43
2022-08-26T00:35:43.833Z,15.93
2022-08-26T00:36:09.534Z,14.95
2022-08-26T00:36:43.276Z,13.68
2022-08-26T00:37:08.990Z,14.40
2022-08-26T00:37:33.505Z,15.73
2022-08-26T00:37:56.451Z,17.38
2022-08-26T00:38:22.956Z,14.63
2022-08-26T00:38:45.974Z,14.10
2022-08-26T00:39:08.878Z,14.75
2022-08-26T00:39:31.824Z,13.85
2022-08-26T00:39:56.910Z,16.83
2022-08-26T00:40:25.484Z,15.13
2022-08-26T00:40:51.906Z,14.05
2022-08-26T00:41:14.864Z,14.05
2022-08-26T00:41:40.054Z,15.68
2022-08-26T00:42:02.930Z,14.15
2022-08-26T00:42:25.779Z,14.68
2022-08-26T00:42:48.944Z,15.18
2022-08-26T00:43:11.909Z,14.93
2022-08-26T00:43:46.058Z,17.25
2022-08-26T00:44:11.293Z,17.45
2022-08-26T00:44:34.181Z,15.40
2022-08-26T00:44:57.514Z,15.88
2022-08-26T00:45:20.459Z,13.73
2022-08-26T00:45:47.304Z,13.05
2022-08-26T00:46:12.422Z,14.45
2022-08-26T00:46:37.200Z,13.80
2022-08-26T00:47:04.388Z,13.70
2022-08-26T00:47:31.261Z,15.32
2022-08-26T00:47:57.018Z,13.88
2022-08-26T00:48:22.630Z,16.75
2022-08-26T00:48:47.102Z,14.18
2022-08-26T00:49:13.422Z,15.30
2022-08-26T00:49:39.794Z,13.68
2022-08-26T00:50:04.003Z,12.77
2022-08-26T00:50:28.698Z,16.25
2022-08-26T00:50:55.893Z,14.48
2022-08-26T00:51:20.104Z,14.30
2022-08-26T00:51:46.620Z,15.68
2022-08-26T00:52:13.085Z,15.77
2022-08-26T00:52:36.142Z,17.35
2022-08-26T00:53:02.207Z,16.63
2022-08-26T00:53:27.837Z,14.23
2022-08-26T00:53:52.709Z,15.10
2022-08-26T00:54:15.684Z,16.08
2022-08-26T00:54:42.393Z,14.43
2022-08-26T00:55:09.445Z,14.55
2022-08-26T00:55:38.018Z,13.65
2022-08-26T00:56:03.341Z,14.13
2022-08-26T00:56:29.714Z,17.45
2022-08-26T00:56:54.247Z,14.32
2022-08-26T00:57:18.213Z,16.35
2022-08-26T00:57:41.083Z,17.40
2022-08-26T00:58:04.119Z,14.00
2022-08-26T00:58:28.360Z,12.82
2022-08-26T00:58:51.074Z,12.98
2022-08-26T00:59:13.954Z,13.27
2022-08-26T00:59:40.359Z,15.00
2022-08-26T01:00:07.249Z,15.23
2022-08-26T01:00:31.770Z,14.65
2022-08-26T01:00:54.710Z,13.27
2022-08-26T01:01:18.209Z,13.40
2022-08-26T01:01:42.539Z,13.93
2022-08-26T01:02:09.104Z,15.95
2022-08-26T01:02:46.938Z,14.60
2022-08-26T01:03:12.741Z,14.15
2022-08-26T01:03:35.610Z,13.13
2022-08-26T01:03:58.369Z,14.80
2022-08-26T01:04:22.651Z,16.25
2022-08-26T01:04:48.058Z,14.25
2022-08-26T01:05:18.281Z,15.77
2022-08-26T01:05:42.483Z,15.10
2022-08-26T01:06:12.638Z,13.70
2022-08-26T01:06:36.304Z,13.00
2022-08-26T01:06:59.265Z,16.98
2022-08-26T01:07:22.534Z,17.60
2022-08-26T01:07:46.419Z,13.82
2022-08-26T01:08:09.350Z,15.23
2022-08-26T01:08:32.209Z,15.00
2022-08-26T01:08:55.900Z,16.08
2022-08-26T01:09:20.349Z,13.77
2022-08-26T01:09:43.332Z,14.52
2022-08-26T01:10:11.422Z,13.65
2022-08-26T01:10:34.228Z,17.30
2022-08-26T01:10:57.150Z,17.10
2022-08-26T01:11:20.108Z,16.38
2022-08-26T01:11:43.062Z,15.13
2022-08-26T01:12:06.673Z,13.48
2022-08-26T01:12:30.558Z,13.93
2022-08-26T01:12:55.719Z,15.57
2022-08-26T01:13:18.612Z,14.32
2022-08-26T01:13:43.207Z,14.48
2022-08-26T01:14:06.053Z,15.70
2022-08-26T01:14:31.868Z,17.05
2022-08-26T01:14:54.803Z,15.70
2022-08-26T01:15:19.327Z,14.48
2022-08-26T01:15:46.382Z,14.85
2022-08-26T01:16:12.062Z,15.27
2022-08-26T01:16:36.011Z,16.52
2022-08-26T01:16:58.872Z,15.02
2022-08-26T01:17:21.814Z,14.25
2022-08-26T01:17:44.618Z,13.40
2022-08-26T01:18:07.919Z,14.40
2022-08-26T01:18:31.683Z,15.25
2022-08-26T01:18:54.988Z,15.35
2022-08-26T01:19:20.891Z,13.32
2022-08-26T01:19:47.028Z,15.20
2022-08-26T01:20:13.202Z,15.73
2022-08-26T01:20:40.389Z,14.60
2022-08-26T01:21:06.316Z,18.85
2022-08-26T01:21:31.598Z,15.32
2022-08-26T01:21:56.887Z,14.48
2022-08-26T01:22:21.517Z,14.13
2022-08-26T01:22:54.784Z,16.25
2022-08-26T01:23:21.646Z,15.13
2022-08-26T01:23:49.333Z,14.57
2022-08-26T01:24:12.373Z,13.35
2022-08-26T01:24:37.079Z,14.27
2022-08-26T01:25:00.315Z,14.27
2022-08-26T01:25:27.439Z,15.82
2022-08-26T01:25:56.389Z,16.90
2022-08-26T01:26:22.055Z,14.38
2022-08-26T01:26:45.645Z,16.20
2022-08-26T01:27:09.904Z,16.33
2022-08-26T01:27:33.616Z,15.50
2022-08-26T01:27:57.966Z,14.45
2022-08-26T01:28:22.893Z,15.10
2022-08-26T01:28:46.285Z,14.52
2022-08-26T01:29:16.855Z,16.42
2022-08-26T01:29:40.911Z,16.50
2022-08-26T01:30:06.536Z,14.40
2022-08-26T01:30:29.549Z,14.10
2022-08-26T01:30:53.350Z,14.60
2022-08-26T01:31:17.687Z,14.88
2022-08-26T01:31:45.650Z,14.68
2022-08-26T01:32:11.150Z,15.27
2022-08-26T01:32:34.363Z,16.88
2022-08-26T01:32:58.193Z,15.85
2022-08-26T01:33:23.758Z,15.27
2022-08-26T01:33:51.415Z,16.50
2022-08-26T01:34:17.034Z,14.98
2022-08-26T01:34:41.049Z,16.23
2022-08-26T01:35:04.199Z,15.68
2022-08-26T01:35:27.653Z,17.23
2022-08-26T01:35:50.784Z,18.13
2022-08-26T01:36:15.270Z,15.25
2022-08-26T01:36:38.883Z,14.57
2022-08-26T01:37:03.104Z,14.43
2022-08-26T01:37:29.024Z,15.98
2022-08-26T01:37:54.688Z,14.43
2022-08-26T01:38:18.519Z,14.23
2022-08-26T01:38:41.526Z,16.38
2022-08-26T01:39:05.821Z,16.42
2022-08-26T01:39:30.444Z,18.45
2022-08-26T01:39:57.335Z,15.63
2022-08-26T01:40:22.317Z,15.75
2022-08-26T01:40:46.304Z,14.65
2022-08-26T01:41:16.108Z,15.55
2022-08-26T01:41:44.135Z,16.83
2022-08-26T01:42:10.411Z,16.17
2022-08-26T01:42:33.578Z,14.87
2022-08-26T01:42:56.969Z,15.70
2022-08-26T01:43:22.387Z,15.52
2022-08-26T01:43:46.434Z,16.52
2022-08-26T01:44:14.932Z,13.93
2022-08-26T01:44:41.667Z,14.20
2022-08-26T01:45:06.068Z,15.85
2022-08-26T01:45:30.662Z,13.43
2022-08-26T01:45:57.391Z,14.25
2022-08-26T01:46:20.523Z,13.43
2022-08-26T01:46:44.004Z,13.45
2022-08-26T01:47:09.655Z,15.70
2022-08-26T01:47:32.615Z,16.42
2022-08-26T01:47:57.546Z,15.20
2022-08-26T01:48:21.844Z,15.05
2022-08-26T01:48:45.253Z,16.90
2022-08-26T01:49:10.084Z,13.93
2022-08-26T01:49:33.009Z,14.40
2022-08-26T01:49:57.649Z,16.55
2022-08-26T01:50:27.735Z,16.90
2022-08-26T01:50:53.094Z,16.48
2022-08-26T01:51:16.154Z,17.13
2022-08-26T01:51:41.345Z,17.80
2022-08-26T01:52:05.243Z,16.40
2022-08-26T01:52:29.695Z,14.85
2022-08-26T01:52:54.776Z,16.42
2022-08-26T01:53:19.143Z,17.50
2022-08-26T01:53:46.100Z,15.23
2022-08-26T01:54:11.847Z,15.07
2022-08-26T01:54:34.950Z,16.50
2022-08-26T01:54:58.005Z,14.77
2022-08-26T01:55:32.179Z,15.98
2022-08-26T01:55:57.654Z,16.05
2022-08-26T01:56:20.584Z,14.43
2022-08-26T01:56:43.554Z,14.15
2022-08-26T01:57:08.118Z,14.43
2022-08-26T01:57:31.089Z,14.43
2022-08-26T01:57:56.259Z,16.27
2022-08-26T01:58:22.295Z,19.83
2022-08-26T01:58:46.854Z,16.90
2022-08-26T01:59:12.137Z,15.65
2022-08-26T01:59:35.333Z,15.63
2022-08-26T02:00:00.387Z,15.50
2022-08-26T02:00:23.759Z,15.30
2022-08-26T02:00:46.820Z,16.83
2022-08-26T02:01:09.871Z,18.98
2022-08-26T02:01:34.375Z,16.80
2022-08-26T02:01:57.174Z,15.32
2022-08-26T02:02:20.023Z,15.60
2022-08-26T02:02:43.449Z,13.57
2022-08-26T02:03:18.855Z,15.48
2022-08-26T02:03:46.649Z,14.50
2022-08-26T02:04:14.507Z,15.18
2022-08-26T02:04:41.203Z,14.27
2022-08-26T02:05:06.794Z,15.93
2022-08-26T02:05:30.049Z,15.45
2022-08-26T02:05:55.314Z,15.80
2022-08-26T02:06:20.094Z,15.40
2022-08-26T02:06:43.030Z,14.23
2022-08-26T02:07:06.995Z,15.70
2022-08-26T02:07:30.611Z,15.75
2022-08-26T02:07:57.622Z,17.00
2022-08-26T02:08:24.794Z,16.45
2022-08-26T02:08:50.462Z,17.83
2022-08-26T02:09:13.879Z,17.23
2022-08-26T02:09:41.156Z,16.70
2022-08-26T02:10:06.304Z,14.20
2022-08-26T02:10:29.455Z,15.40
2022-08-26T02:10:54.811Z,13.13
2022-08-26T02:11:18.397Z,14.85
2022-08-26T02:11:41.545Z,18.48
2022-08-26T02:12:05.023Z,15.13
2022-08-26T02:12:27.856Z,15.55
2022-08-26T02:12:50.957Z,15.50
2022-08-26T02:13:13.836Z,16.55
2022-08-26T02:13:39.913Z,13.70
2022-08-26T02:14:04.915Z,15.43
2022-08-26T02:14:29.951Z,14.77
2022-08-26T02:14:54.593Z,16.27
2022-08-26T02:15:17.480Z,15.75
2022-08-26T02:15:44.523Z,15.52
2022-08-26T02:16:07.948Z,15.63
2022-08-26T02:16:34.442Z,15.20
2022-08-26T02:16:59.859Z,16.70
2022-08-26T02:17:26.148Z,17.33
2022-08-26T02:17:49.422Z,14.65
2022-08-26T02:18:15.762Z,15.38
2022-08-26T02:18:41.500Z,15.30
2022-08-26T02:19:06.126Z,17.90
2022-08-26T02:19:36.066Z,15.52
2022-08-26T02:19:59.221Z,14.70
2022-08-26T02:20:22.287Z,15.60
2022-08-26T02:20:46.466Z,15.40
2022-08-26T02:21:14.576Z,15.00
2022-08-26T02:21:40.081Z,14.82
2022-08-26T02:22:05.579Z,14.88
2022-08-26T02:22:28.772Z,14.30
2022-08-26T02:22:52.403Z,13.68
2022-08-26T02:23:19.291Z,17.63
2022-08-26T02:23:43.306Z,16.08
2022-08-26T02:24:10.668Z,14.38
2022-08-26T02:24:47.592Z,16.55
2022-08-26T02:25:12.860Z,16.08
2022-08-26T02:25:41.823Z,15.23
2022-08-26T02:26:08.723Z,15.07
2022-08-26T02:26:32.283Z,15.35
2022-08-26T02:26:55.249Z,13.73
2022-08-26T02:27:21.732Z,17.05
2022-08-26T02:27:46.019Z,16.40
2022-08-26T02:28:10.765Z,15.18
2022-08-26T02:28:39.098Z,13.93
2022-08-26T02:29:05.159Z,17.80
2022-08-26T02:29:33.660Z,15.30
2022-08-26T02:29:59.180Z,13.85
2022-08-26T02:30:23.239Z,14.68
2022-08-26T02:30:47.575Z,15.13
2022-08-26T02:31:10.818Z,15.88
2022-08-26T02:31:33.713Z,14.90
2022-08-26T02:31:58.044Z,15.75
2022-08-26T02:32:21.517Z,14.52
2022-08-26T02:32:46.944Z,14.95
2022-08-26T02:33:12.874Z,14.27
2022-08-26T02:33:35.722Z,14.68
2022-08-26T02:34:08.205Z,14.57
2022-08-26T02:34:33.644Z,14.27
2022-08-26T02:34:56.675Z,13.63
2022-08-26T02:35:21.079Z,13.95
2022-08-26T02:35:43.984Z,13.23
2022-08-26T02:36:08.217Z,15.88
2022-08-26T02:36:31.229Z,15.48
2022-08-26T02:36:54.023Z,15.35
2022-08-26T02:37:17.731Z,14.27
2022-08-26T02:37:41.840Z,16.15
2022-08-26T02:38:10.271Z,15.75
2022-08-26T02:38:35.720Z,13.93
2022-08-26T02:38:59.370Z,14.50
2022-08-26T02:39:22.539Z,15.68
2022-08-26T02:39:45.739Z,14.57
2022-08-26T02:40:11.563Z,13.15
2022-08-26T02:40:39.410Z,14.88
2022-08-26T02:41:02.969Z,15.57
2022-08-26T02:41:25.834Z,12.77
2022-08-26T02:41:49.109Z,13.65
2022-08-26T02:42:12.729Z,16.08
2022-08-26T02:42:35.729Z,14.02
2022-08-26T02:43:00.043Z,15.60
2022-08-26T02:43:31.329Z,16.63
2022-08-26T02:43:56.053Z,15.30
2022-08-26T02:44:19.428Z,13.57
2022-08-26T02:44:42.332Z,13.73
2022-08-26T02:45:09.719Z,16.08
2022-08-26T02:45:33.057Z,14.80
2022-08-26T02:45:55.853Z,16.25
2022-08-26T02:46:27.810Z,14.75
2022-08-26T02:46:54.120Z,16.63
2022-08-26T02:47:17.331Z,15.10
2022-08-26T02:47:40.461Z,17.65
2022-08-26T02:48:07.341Z,16.60
2022-08-26T02:48:30.939Z,18.27
2022-08-26T02:48:53.715Z,16.42
2022-08-26T02:49:17.053Z,14.57
2022-08-26T02:49:40.347Z,15.80
2022-08-26T02:50:08.250Z,16.08
2022-08-26T02:50:31.133Z,16.33
2022-08-26T02:50:54.086Z,15.68
2022-08-26T02:51:17.111Z,15.73
2022-08-26T02:51:40.576Z,16.20
2022-08-26T02:52:06.293Z,18.33
2022-08-26T02:52:29.220Z,21.48
2022-08-26T02:52:52.783Z,18.90
2022-08-26T02:53:15.793Z,16.17
2022-08-26T02:53:40.075Z,15.65
2022-08-26T02:54:08.728Z,17.00
2022-08-26T02:54:33.231Z,16.50
2022-08-26T02:54:56.528Z,17.50
2022-08-26T02:55:19.425Z,15.77
2022-08-26T02:55:42.494Z,14.82
2022-08-26T02:56:08.079Z,16.58
2022-08-26T02:56:32.849Z,17.45
2022-08-26T02:56:56.555Z,14.35
2022-08-26T02:57:20.944Z,16.63
2022-08-26T02:57:45.238Z,14.93
2022-08-26T02:58:08.562Z,16.13
2022-08-26T02:58:31.917Z,17.20
2022-08-26T02:58:55.268Z,15.55
2022-08-26T02:59:18.338Z,13.32
2022-08-26T02:59:41.512Z,14.00
2022-08-26T03:00:06.835Z,16.95
2022-08-26T03:00:29.750Z,15.00
2022-08-26T03:00:54.065Z,15.15
2022-08-26T03:01:22.247Z,14.80
2022-08-26T03:01:45.447Z,16.88
2022-08-26T03:02:10.847Z,17.05
2022-08-26T03:02:33.893Z,17.77
2022-08-26T03:02:57.484Z,15.88
2022-08-26T03:03:23.607Z,16.35
2022-08-26T03:03:46.957Z,16.45
2022-08-26T03:04:12.627Z,18.17
2022-08-26T03:04:37.017Z,14.98
2022-08-26T03:05:02.522Z,16.27
2022-08-26T03:05:25.857Z,16.42
2022-08-26T03:05:49.041Z,15.88
2022-08-26T03:06:12.116Z,14.10
2022-08-26T03:06:35.080Z,15.60
2022-08-26T03:07:00.081Z,15.82
2022-08-26T03:07:26.277Z,18.92
2022-08-26T03:07:49.369Z,17.55
2022-08-26T03:08:12.266Z,16.25
2022-08-26T03:08:35.088Z,16.15
2022-08-26T03:08:59.744Z,15.40
2022-08-26T03:09:22.630Z,16.27
2022-08-26T03:09:46.214Z,16.13
2022-08-26T03:10:09.829Z,16.17
2022-08-26T03:10:33.273Z,15.00
2022-08-26T03:10:56.158Z,14.98
2022-08-26T03:11:18.977Z,16.30
2022-08-26T03:11:44.614Z,17.40
2022-08-26T03:12:08.078Z,15.43
2022-08-26T03:12:31.038Z,14.65
2022-08-26T03:12:53.969Z,16.70
2022-08-26T03:13:17.408Z,15.55
2022-08-26T03:13:40.376Z,16.30
2022-08-26T03:14:03.892Z,18.25
2022-08-26T03:14:26.966Z,16.70
2022-08-26T03:14:49.836Z,16.13
2022-08-26T03:15:17.996Z,14.82
2022-08-26T03:15:41.896Z,16.00
2022-08-26T03:16:08.518Z,14.75
2022-08-26T03:16:33.227Z,17.50
2022-08-26T03:16:56.362Z,16.90
2022-08-26T03:17:22.006Z,16.58
2022-08-26T03:17:44.887Z,16.95
2022-08-26T03:18:07.767Z,16.48
2022-08-26T03:18:30.607Z,16.98
2022-08-26T03:18:53.990Z,17.63
2022-08-26T03:19:17.690Z,16.80
2022-08-26T03:19:40.704Z,15.52
2022-08-26T03:20:04.524Z,15.20
2022-08-26T03:20:27.379Z,15.88
2022-08-26T03:20:50.509Z,17.02
2022-08-26T03:21:14.674Z,19.50
2022-08-26T03:21:37.994Z,17.30
2022-08-26T03:22:00.942Z,18.70
2022-08-26T03:22:23.884Z,14.75
2022-08-26T03:22:46.881Z,17.90
2022-08-26T03:23:09.874Z,19.60
2022-08-26T03:23:33.337Z,15.60
2022-08-26T03:23:58.809Z,15.55
2022-08-26T03:24:24.537Z,15.15
2022-08-26T03:24:48.049Z,17.50
2022-08-26T03:25:13.204Z,15.27
2022-08-26T03:25:38.186Z,17.77
2022-08-26T03:26:01.888Z,21.13
2022-08-26T03:26:24.889Z,18.40
2022-08-26T03:26:52.069Z,16.27
2022-08-26T03:27:16.248Z,16.30
2022-08-26T03:27:40.685Z,17.33
2022-08-26T03:28:06.135Z,18.58
2022-08-26T03:28:30.946Z,16.95
2022-08-26T03:29:12.255Z,17.10
2022-08-26T03:29:53.820Z,16.05
2022-08-26T03:30:35.205Z,18.65
2022-08-26T03:30:58.480Z,16.67
2022-08-26T03:31:21.642Z,16.75
2022-08-26T03:31:47.571Z,20.40
2022-08-26T03:32:10.667Z,16.27
2022-08-26T03:32:33.608Z,18.48
2022-08-26T03:32:56.838Z,19.10
2022-08-26T03:33:20.572Z,19.02
2022-08-26T03:33:43.537Z,17.35
2022-08-26T03:34:06.492Z,19.92
2022-08-26T03:34:29.453Z,17.83
2022-08-26T03:34:53.020Z,16.20
2022-08-26T03:35:16.374Z,18.27
2022-08-26T03:35:40.907Z,18.40
2022-08-26T03:36:04.232Z,18.77
2022-08-26T03:36:27.144Z,16.33
2022-08-26T03:36:50.469Z,15.30
2022-08-26T03:37:13.711Z,16.05
2022-08-26T03:37:36.552Z,16.13
2022-08-26T03:37:59.657Z,16.73
2022-08-26T03:38:25.522Z,14.90
2022-08-26T03:38:48.922Z,17.30
2022-08-26T03:39:13.885Z,16.92
2022-08-26T03:39:37.080Z,14.85
2022-08-26T03:39:59.999Z,15.30
2022-08-26T03:40:23.338Z,16.58
2022-08-26T03:40:46.284Z,15.80
2022-08-26T03:41:09.074Z,16.52
2022-08-26T03:41:33.343Z,17.90
2022-08-26T03:41:56.223Z,16.80
2022-08-26T03:42:21.444Z,15.95
2022-08-26T03:42:45.355Z,17.17
2022-08-26T03:43:08.751Z,18.23
2022-08-26T03:43:33.088Z,15.70
2022-08-26T03:44:01.058Z,17.48
2022-08-26T03:44:24.689Z,16.75
2022-08-26T03:44:48.576Z,16.05
2022-08-26T03:45:12.209Z,15.80
2022-08-26T03:45:35.752Z,15.55
2022-08-26T03:45:58.675Z,16.52
2022-08-26T03:46:21.571Z,13.93
2022-08-26T03:46:44.503Z,15.52
2022-08-26T03:47:08.114Z,17.23
2022-08-26T03:47:31.775Z,18.58
2022-08-26T03:47:55.164Z,16.02
2022-08-26T03:48:20.808Z,14.48
2022-08-26T03:48:43.674Z,15.82
2022-08-26T03:49:07.953Z,18.25
2022-08-26T03:49:34.325Z,14.75
2022-08-26T03:49:57.979Z,15.90
2022-08-26T03:50:22.846Z,16.77
2022-08-26T03:50:46.005Z,15.43
2022-08-26T03:51:12.879Z,16.08
2022-08-26T03:51:38.904Z,15.18
2022-08-26T03:52:02.043Z,17.67
2022-08-26T03:52:26.644Z,15.13
2022-08-26T03:52:49.993Z,15.88
2022-08-26T03:53:13.435Z,17.10
2022-08-26T03:53:36.614Z,17.70
2022-08-26T03:54:00.873Z,16.92
2022-08-26T03:54:27.289Z,17.63
2022-08-26T03:54:50.784Z,14.35
2022-08-26T03:55:15.097Z,14.82
2022-08-26T03:55:38.069Z,15.15
2022-08-26T03:56:02.794Z,15.45
2022-08-26T03:56:26.114Z,15.75
2022-08-26T03:56:49.213Z,17.02
2022-08-26T03:57:12.089Z,17.10
2022-08-26T03:57:34.981Z,17.80
2022-08-26T03:57:57.980Z,17.40
2022-08-26T03:58:20.898Z,15.02
2022-08-26T03:58:44.756Z,14.50
2022-08-26T03:59:08.797Z,16.35
2022-08-26T03:59:31.653Z,15.13
2022-08-26T03:59:54.549Z,16.10
2022-08-26T04:00:18.385Z,18.42
2022-08-26T04:00:42.027Z,16.42
2022-08-26T04:01:05.038Z,13.65
2022-08-26T04:01:28.061Z,16.52
2022-08-26T04:01:51.069Z,16.27
2022-08-26T04:02:14.059Z,15.43
2022-08-26T04:02:39.220Z,16.42
2022-08-26T04:03:03.499Z,16.25
2022-08-26T04:03:44.854Z,15.82
2022-08-26T04:04:07.868Z,17.48
2022-08-26T04:04:30.654Z,18.08
2022-08-26T04:04:53.628Z,17.52
2022-08-26T04:05:20.204Z,16.45
2022-08-26T04:05:43.175Z,15.57
2022-08-26T04:06:08.394Z,15.63
2022-08-26T04:06:33.455Z,14.40
2022-08-26T04:06:57.514Z,15.63
2022-08-26T04:07:20.394Z,16.83
2022-08-26T04:07:43.369Z,14.75
2022-08-26T04:08:06.378Z,14.23
2022-08-26T04:08:31.871Z,15.07
2022-08-26T04:08:54.913Z,17.70
2022-08-26T04:09:19.439Z,17.10
2022-08-26T04:09:49.015Z,16.85
2022-08-26T04:10:12.729Z,16.95
2022-08-26T04:10:38.555Z,15.60
2022-08-26T04:11:01.986Z,15.95
2022-08-26T04:11:28.866Z,20.73
2022-08-26T04:11:55.120Z,17.45
2022-08-26T04:12:21.328Z,16.33
2022-08-26T04:12:46.963Z,17.67
2022-08-26T04:13:10.925Z,18.58
2022-08-26T04:13:35.307Z,17.38
2022-08-26T04:13:59.634Z,16.02
2022-08-26T04:14:23.939Z,16.60
2022-08-26T04:14:50.150Z,18.52
2022-08-26T04:15:14.654Z,17.73
2022-08-26T04:15:39.434Z,16.35
2022-08-26T04:16:02.524Z,18.80
2022-08-26T04:16:25.416Z,19.40
2022-08-26T04:16:51.090Z,20.25
2022-08-26T04:17:15.799Z,18.20
2022-08-26T04:17:39.828Z,19.00
2022-08-26T04:18:02.839Z,18.10
2022-08-26T04:18:32.646Z,20.33
2022-08-26T04:18:59.840Z,16.55
2022-08-26T04:19:23.053Z,15.88
2022-08-26T04:19:46.013Z,16.13
2022-08-26T04:20:14.037Z,17.48
2022-08-26T04:20:39.654Z,17.38
2022-08-26T04:21:02.591Z,17.67
2022-08-26T04:21:32.596Z,16.95
2022-08-26T04:21:55.557Z,17.25
2022-08-26T04:22:24.934Z,16.25
2022-08-26T04:22:48.090Z,19.55
2022-08-26T04:23:11.611Z,15.98
2022-08-26T04:23:34.541Z,15.27
2022-08-26T04:24:11.922Z,16.67
2022-08-26T04:24:36.439Z,16.67
2022-08-26T04:25:04.529Z,17.67
2022-08-26T04:25:30.066Z,15.85
2022-08-26T04:25:52.889Z,14.37
2022-08-26T04:26:16.740Z,17.27
2022-08-26T04:26:42.724Z,16.73
2022-08-26T04:27:07.159Z,16.20
2022-08-26T04:27:31.737Z,15.73
2022-08-26T04:27:55.102Z,19.92
2022-08-26T04:28:17.918Z,19.80
2022-08-26T04:28:40.923Z,18.15
2022-08-26T04:29:05.428Z,22.10
2022-08-26T04:29:28.971Z,23.88
2022-08-26T04:29:55.342Z,19.48
2022-08-26T04:30:20.205Z,15.70
2022-08-26T04:30:43.972Z,15.40
2022-08-26T04:31:10.034Z,18.80
2022-08-26T04:31:34.049Z,22.35
2022-08-26T04:31:59.658Z,18.17
2022-08-26T04:32:22.471Z,18.77
2022-08-26T04:32:46.011Z,18.70
2022-08-26T04:33:12.630Z,18.65
2022-08-26T04:33:36.415Z,19.25
2022-08-26T04:34:04.795Z,21.58
2022-08-26T04:34:29.107Z,20.05
2022-08-26T04:34:52.159Z,20.40
2022-08-26T04:35:15.096Z,20.13
2022-08-26T04:35:38.805Z,24.98
2022-08-26T04:36:06.411Z,24.60
2022-08-26T04:36:29.446Z,23.10
2022-08-26T04:36:52.879Z,26.17
2022-08-26T04:37:16.588Z,25.70
2022-08-26T04:37:42.678Z,22.00
2022-08-26T04:38:06.084Z,24.83
2022-08-26T04:38:30.594Z,22.73
2022-08-26T04:38:53.513Z,24.42
2022-08-26T04:39:21.909Z,26.33
2022-08-26T04:39:45.923Z,29.20
2022-08-26T04:40:14.309Z,24.70
2022-08-26T04:40:37.343Z,24.92
2022-08-26T04:41:03.593Z,25.05
2022-08-26T04:41:28.464Z,24.00
2022-08-26T04:41:57.999Z,17.77
2022-08-26T04:42:26.137Z,20.13
2022-08-26T04:42:49.551Z,20.13
2022-08-26T04:43:12.397Z,22.95
2022-08-26T04:43:35.894Z,19.45
2022-08-26T04:43:58.934Z,17.55
2022-08-26T04:44:22.246Z,20.48
2022-08-26T04:44:46.658Z,18.75
2022-08-26T04:45:11.887Z,19.85
2022-08-26T04:45:36.462Z,18.17
2022-08-26T04:45:59.958Z,17.45
2022-08-26T04:46:24.604Z,18.92
2022-08-26T04:46:50.630Z,18.58
2022-08-26T04:47:13.728Z,17.02
2022-08-26T04:47:36.601Z,21.70
2022-08-26T04:47:59.572Z,19.55
2022-08-26T04:48:25.139Z,18.30
2022-08-26T04:48:49.256Z,18.60
2022-08-26T04:49:12.376Z,21.20
2022-08-26T04:49:35.921Z,18.95
2022-08-26T04:49:59.251Z,18.48
2022-08-26T04:50:23.621Z,17.83
2022-08-26T04:50:49.445Z,16.63
2022-08-26T04:51:12.742Z,20.45
2022-08-26T04:51:35.817Z,23.73
2022-08-26T04:51:59.732Z,20.98
2022-08-26T04:52:22.603Z,20.92
2022-08-26T04:52:45.656Z,19.35
2022-08-26T04:53:09.255Z,17.55
2022-08-26T04:53:32.539Z,15.48
2022-08-26T04:53:57.661Z,15.98
2022-08-26T04:54:20.877Z,17.08
2022-08-26T04:54:43.886Z,18.13
2022-08-26T04:55:07.829Z,20.98
2022-08-26T04:55:38.688Z,19.90
2022-08-26T04:56:03.878Z,16.67
2022-08-26T04:56:31.458Z,18.77
2022-08-26T04:56:55.259Z,17.65
2022-08-26T04:57:19.447Z,18.25
2022-08-26T04:57:43.273Z,16.90
2022-08-26T04:58:10.306Z,20.10
2022-08-26T04:58:33.688Z,15.95
2022-08-26T04:58:56.874Z,20.33
2022-08-26T04:59:19.832Z,20.35
2022-08-26T04:59:42.698Z,19.90
2022-08-26T05:00:07.493Z,17.73
2022-08-26T05:00:30.503Z,19.67
2022-08-26T05:00:55.253Z,18.35
2022-08-26T05:01:18.994Z,17.90
2022-08-26T05:01:44.231Z,18.25
2022-08-26T05:02:07.254Z,15.75
2022-08-26T05:02:31.612Z,16.50
2022-08-26T05:02:55.757Z,17.30
2022-08-26T05:03:19.286Z,19.58
2022-08-26T05:03:42.414Z,15.70
2022-08-26T05:04:08.117Z,16.30
2022-08-26T05:04:34.614Z,15.63
2022-08-26T05:04:58.800Z,17.88
2022-08-26T05:05:22.312Z,18.83
2022-08-26T05:05:48.228Z,16.88
2022-08-26T05:06:12.407Z,20.73
2022-08-26T05:06:35.569Z,18.20
2022-08-26T05:07:02.267Z,17.50
2022-08-26T05:07:25.833Z,16.58
2022-08-26T05:07:48.748Z,14.63
2022-08-26T05:08:14.987Z,18.35
2022-08-26T05:08:38.384Z,16.27
2022-08-26T05:09:01.269Z,16.83
2022-08-26T05:09:25.588Z,17.40
2022-08-26T05:09:48.477Z,16.73
2022-08-26T05:10:11.582Z,14.77
2022-08-26T05:10:39.948Z,15.82
2022-08-26T05:11:04.157Z,16.73
2022-08-26T05:11:28.624Z,15.82
2022-08-26T05:11:52.238Z,15.07
2022-08-26T05:12:15.374Z,18.17
2022-08-26T05:12:39.382Z,17.80
2022-08-26T05:13:11.203Z,15.60
2022-08-26T05:13:35.579Z,14.05
2022-08-26T05:14:02.109Z,15.93
2022-08-26T05:14:25.464Z,15.38
2022-08-26T05:14:48.536Z,14.80
2022-08-26T05:15:12.089Z,14.10
2022-08-26T05:15:35.970Z,18.50
2022-08-26T05:16:03.236Z,19.33
2022-08-26T05:16:26.337Z,17.15
2022-08-26T05:16:49.426Z,17.73
2022-08-26T05:17:14.900Z,19.98
2022-08-26T05:17:38.410Z,20.27